sensor_id;sensor_type;location;lat;lon;timestamp;temperature;humidity
13256;DHT22;37913;48.370;10.930;2022-07-21T00:00:15;25.70;34.80
13256;DHT22;37913;48.370;10.930;2022-07-21T00:02:42;25.60;99.90
13256;DHT22;37913;48.370;10.930;2022-07-21T00:05:09;25.50;99.90
13256;DHT22;37913;48.370;10.930;2022-07-21T00:07:36;25.50;99.90
13256;DHT22;37913;48.370;10.930;2022-07-21T00:10:03;25.40;1.00
13256;DHT22;37913;48.370;10.930;2022-07-21T00:12:30;25.30;1.00
13256;DHT22;37913;48.370;10.930;2022-07-21T00:14:59;25.20;1.00
13256;DHT22;37913;48.370;10.930;2022-07-21T00:17:26;25.20;1.00
13256;DHT22;37913;48.370;10.930;2022-07-21T00:19:52;25.20;99.90
13256;DHT22;37913;48.370;10.930;2022-07-21T00:22:19;25.10;1.00
13256;DHT22;37913;48.370;10.930;2022-07-21T00:24:46;25.00;1.00
13256;DHT22;37913;48.370;10.930;2022-07-21T00:27:13;25.00;99.90
13256;DHT22;37913;48.370;10.930;2022-07-21T00:29:40;24.90;1.00
13256;DHT22;37913;48.370;10.930;2022-07-21T00:32:09;24.90;60.20
13256;DHT22;37913;48.370;10.930;2022-07-21T00:34:35;24.90;1.00
13256;DHT22;37913;48.370;10.930;2022-07-21T00:37:02;24.80;54.50
13256;DHT22;37913;48.370;10.930;2022-07-21T00:39:29;24.80;99.90
13256;DHT22;37913;48.370;10.930;2022-07-21T00:41:56;24.70;99.90
13256;DHT22;37913;48.370;10.930;2022-07-21T00:44:26;24.70;1.00
13256;DHT22;37913;48.370;10.930;2022-07-21T00:46:54;24.70;1.00
13256;DHT22;37913;48.370;10.930;2022-07-21T00:49:23;24.70;1.00
13256;DHT22;37913;48.370;10.930;2022-07-21T00:51:51;24.60;1.00
13256;DHT22;37913;48.370;10.930;2022-07-21T00:54:19;24.60;99.90
13256;DHT22;37913;48.370;10.930;2022-07-21T00:56:46;24.60;99.90
13256;DHT22;37913;48.370;10.930;2022-07-21T00:59:13;24.50;99.90
13256;DHT22;37913;48.370;10.930;2022-07-21T01:01:41;24.50;99.90
13256;DHT22;37913;48.370;10.930;2022-07-21T01:04:08;24.40;1.00
13256;DHT22;37913;48.370;10.930;2022-07-21T01:06:36;24.40;40.30
13256;DHT22;37913;48.370;10.930;2022-07-21T01:09:03;24.40;92.10
13256;DHT22;37913;48.370;10.930;2022-07-21T01:11:31;24.40;1.00
13256;DHT22;37913;48.370;10.930;2022-07-21T01:13:58;24.30;1.00
13256;DHT22;37913;48.370;10.930;2022-07-21T01:16:25;24.30;1.00
13256;DHT22;37913;48.370;10.930;2022-07-21T01:18:52;24.30;95.70
13256;DHT22;37913;48.370;10.930;2022-07-21T01:21:32;24.20;1.00
13256;DHT22;37913;48.370;10.930;2022-07-21T01:23:59;24.20;99.90
13256;DHT22;37913;48.370;10.930;2022-07-21T01:26:27;24.20;1.00
13256;DHT22;37913;48.370;10.930;2022-07-21T01:28:55;24.10;1.00
13256;DHT22;37913;48.370;10.930;2022-07-21T01:31:22;24.10;99.90
13256;DHT22;37913;48.370;10.930;2022-07-21T01:33:50;24.00;99.90
13256;DHT22;37913;48.370;10.930;2022-07-21T01:36:17;24.00;1.00
13256;DHT22;37913;48.370;10.930;2022-07-21T01:38:45;24.00;99.90
13256;DHT22;37913;48.370;10.930;2022-07-21T01:41:30;24.00;99.90
13256;DHT22;37913;48.370;10.930;2022-07-21T01:44:00;23.90;1.00
13256;DHT22;37913;48.370;10.930;2022-07-21T01:46:29;23.90;99.90
13256;DHT22;37913;48.370;10.930;2022-07-21T01:48:57;23.90;99.90
13256;DHT22;37913;48.370;10.930;2022-07-21T01:51:24;23.90;99.90
13256;DHT22;37913;48.370;10.930;2022-07-21T01:53:53;23.90;99.90
13256;DHT22;37913;48.370;10.930;2022-07-21T01:56:21;23.90;99.90
13256;DHT22;37913;48.370;10.930;2022-07-21T01:58:49;23.80;1.00
13256;DHT22;37913;48.370;10.930;2022-07-21T02:01:16;23.80;1.00
13256;DHT22;37913;48.370;10.930;2022-07-21T02:03:43;23.80;1.00
13256;DHT22;37913;48.370;10.930;2022-07-21T02:06:10;23.80;1.00
13256;DHT22;37913;48.370;10.930;2022-07-21T02:08:38;23.80;1.00
13256;DHT22;37913;48.370;10.930;2022-07-21T02:11:06;23.70;1.00
13256;DHT22;37913;48.370;10.930;2022-07-21T02:13:33;23.80;1.00
13256;DHT22;37913;48.370;10.930;2022-07-21T02:16:01;23.70;1.00
13256;DHT22;37913;48.370;10.930;2022-07-21T02:18:28;23.70;38.80
13256;DHT22;37913;48.370;10.930;2022-07-21T02:20:55;23.70;95.20
13256;DHT22;37913;48.370;10.930;2022-07-21T02:23:23;23.80;99.90
13256;DHT22;37913;48.370;10.930;2022-07-21T02:25:51;23.70;99.90
13256;DHT22;37913;48.370;10.930;2022-07-21T02:28:19;23.80;99.90
13256;DHT22;37913;48.370;10.930;2022-07-21T02:30:46;23.80;99.90
13256;DHT22;37913;48.370;10.930;2022-07-21T02:33:14;23.80;99.90
13256;DHT22;37913;48.370;10.930;2022-07-21T02:35:41;23.80;99.90
13256;DHT22;37913;48.370;10.930;2022-07-21T02:38:08;23.80;99.90
13256;DHT22;37913;48.370;10.930;2022-07-21T02:40:35;23.80;99.90
13256;DHT22;37913;48.370;10.930;2022-07-21T02:43:03;23.80;99.90
13256;DHT22;37913;48.370;10.930;2022-07-21T02:45:32;23.80;99.90
13256;DHT22;37913;48.370;10.930;2022-07-21T02:48:02;23.80;99.90
13256;DHT22;37913;48.370;10.930;2022-07-21T02:50:31;23.80;99.90
13256;DHT22;37913;48.370;10.930;2022-07-21T02:53:00;23.80;1.00
13256;DHT22;37913;48.370;10.930;2022-07-21T02:55:27;23.80;1.00
13256;DHT22;37913;48.370;10.930;2022-07-21T02:58:09;23.80;1.00
13256;DHT22;37913;48.370;10.930;2022-07-21T03:00:39;23.80;1.00
13256;DHT22;37913;48.370;10.930;2022-07-21T03:03:07;23.80;1.00
13256;DHT22;37913;48.370;10.930;2022-07-21T03:05:35;23.80;1.00
13256;DHT22;37913;48.370;10.930;2022-07-21T03:08:03;23.80;1.00
13256;DHT22;37913;48.370;10.930;2022-07-21T03:10:30;23.80;1.00
13256;DHT22;37913;48.370;10.930;2022-07-21T03:12:57;23.80;1.00
13256;DHT22;37913;48.370;10.930;2022-07-21T03:15:24;23.80;1.00
13256;DHT22;37913;48.370;10.930;2022-07-21T03:17:54;23.80;1.00
13256;DHT22;37913;48.370;10.930;2022-07-21T03:20:22;23.80;1.00
13256;DHT22;37913;48.370;10.930;2022-07-21T03:22:50;23.80;1.00
13256;DHT22;37913;48.370;10.930;2022-07-21T03:25:16;23.80;1.00
13256;DHT22;37913;48.370;10.930;2022-07-21T03:27:44;23.70;1.00
13256;DHT22;37913;48.370;10.930;2022-07-21T03:30:12;23.70;1.00
13256;DHT22;37913;48.370;10.930;2022-07-21T03:32:40;23.80;1.00
13256;DHT22;37913;48.370;10.930;2022-07-21T03:35:10;23.80;1.00
13256;DHT22;37913;48.370;10.930;2022-07-21T03:37:41;23.80;1.00
13256;DHT22;37913;48.370;10.930;2022-07-21T03:40:10;23.80;1.00
13256;DHT22;37913;48.370;10.930;2022-07-21T03:42:37;23.80;1.00
13256;DHT22;37913;48.370;10.930;2022-07-21T03:45:05;23.80;1.00
13256;DHT22;37913;48.370;10.930;2022-07-21T03:47:32;23.90;1.00
13256;DHT22;37913;48.370;10.930;2022-07-21T03:49:59;23.90;1.00
13256;DHT22;37913;48.370;10.930;2022-07-21T03:52:27;23.90;1.00
13256;DHT22;37913;48.370;10.930;2022-07-21T03:54:54;23.90;1.00
13256;DHT22;37913;48.370;10.930;2022-07-21T03:57:35;23.90;1.00
13256;DHT22;37913;48.370;10.930;2022-07-21T04:00:04;23.80;1.00
13256;DHT22;37913;48.370;10.930;2022-07-21T04:02:31;23.90;1.00
13256;DHT22;37913;48.370;10.930;2022-07-21T04:04:58;23.80;11.00
13256;DHT22;37913;48.370;10.930;2022-07-21T04:07:26;23.80;99.90
13256;DHT22;37913;48.370;10.930;2022-07-21T04:09:53;23.80;99.90
13256;DHT22;37913;48.370;10.930;2022-07-21T04:12:24;23.80;99.90
13256;DHT22;37913;48.370;10.930;2022-07-21T04:14:50;23.80;1.00
13256;DHT22;37913;48.370;10.930;2022-07-21T04:17:17;23.80;1.00
13256;DHT22;37913;48.370;10.930;2022-07-21T04:19:44;23.80;1.00
13256;DHT22;37913;48.370;10.930;2022-07-21T04:22:11;23.70;1.00
13256;DHT22;37913;48.370;10.930;2022-07-21T04:24:39;23.70;1.00
13256;DHT22;37913;48.370;10.930;2022-07-21T04:27:06;23.70;1.00
13256;DHT22;37913;48.370;10.930;2022-07-21T04:29:33;23.70;1.00
13256;DHT22;37913;48.370;10.930;2022-07-21T04:32:00;23.70;1.00
13256;DHT22;37913;48.370;10.930;2022-07-21T04:34:28;23.70;1.00
13256;DHT22;37913;48.370;10.930;2022-07-21T04:36:55;23.60;1.00
13256;DHT22;37913;48.370;10.930;2022-07-21T04:39:22;23.60;1.00
13256;DHT22;37913;48.370;10.930;2022-07-21T04:41:50;23.60;23.30
13256;DHT22;37913;48.370;10.930;2022-07-21T04:44:17;23.60;93.50
13256;DHT22;37913;48.370;10.930;2022-07-21T04:46:44;23.60;99.90
13256;DHT22;37913;48.370;10.930;2022-07-21T04:49:11;23.50;99.90
13256;DHT22;37913;48.370;10.930;2022-07-21T04:51:38;23.50;99.90
13256;DHT22;37913;48.370;10.930;2022-07-21T04:54:05;23.50;99.90
13256;DHT22;37913;48.370;10.930;2022-07-21T04:56:32;23.50;99.90
13256;DHT22;37913;48.370;10.930;2022-07-21T04:59:01;23.50;99.90
13256;DHT22;37913;48.370;10.930;2022-07-21T05:01:28;23.50;99.90
13256;DHT22;37913;48.370;10.930;2022-07-21T05:03:55;23.50;99.90
13256;DHT22;37913;48.370;10.930;2022-07-21T05:06:22;23.50;99.90
13256;DHT22;37913;48.370;10.930;2022-07-21T05:08:49;23.50;99.90
13256;DHT22;37913;48.370;10.930;2022-07-21T05:11:16;23.50;99.90
13256;DHT22;37913;48.370;10.930;2022-07-21T05:13:43;23.50;1.00
13256;DHT22;37913;48.370;10.930;2022-07-21T05:16:11;23.40;1.00
13256;DHT22;37913;48.370;10.930;2022-07-21T05:18:38;23.40;1.00
13256;DHT22;37913;48.370;10.930;2022-07-21T05:21:05;23.40;1.00
13256;DHT22;37913;48.370;10.930;2022-07-21T05:23:32;23.40;1.00
13256;DHT22;37913;48.370;10.930;2022-07-21T05:25:59;23.40;1.00
13256;DHT22;37913;48.370;10.930;2022-07-21T05:28:27;23.40;1.00
13256;DHT22;37913;48.370;10.930;2022-07-21T05:30:54;23.40;1.00
13256;DHT22;37913;48.370;10.930;2022-07-21T05:33:22;23.40;1.00
13256;DHT22;37913;48.370;10.930;2022-07-21T05:35:49;23.40;1.00
13256;DHT22;37913;48.370;10.930;2022-07-21T05:38:16;23.40;1.00
13256;DHT22;37913;48.370;10.930;2022-07-21T05:40:43;23.40;1.00
13256;DHT22;37913;48.370;10.930;2022-07-21T05:43:10;23.40;1.00
13256;DHT22;37913;48.370;10.930;2022-07-21T05:45:37;23.50;1.00
13256;DHT22;37913;48.370;10.930;2022-07-21T05:48:04;23.50;1.00
13256;DHT22;37913;48.370;10.930;2022-07-21T05:50:33;23.50;1.00
13256;DHT22;37913;48.370;10.930;2022-07-21T05:53:00;23.50;1.00
13256;DHT22;37913;48.370;10.930;2022-07-21T05:55:27;23.50;1.00
13256;DHT22;37913;48.370;10.930;2022-07-21T05:57:53;23.50;1.00
13256;DHT22;37913;48.370;10.930;2022-07-21T06:00:20;23.60;1.00
13256;DHT22;37913;48.370;10.930;2022-07-21T06:02:47;23.60;1.00
13256;DHT22;37913;48.370;10.930;2022-07-21T06:05:16;23.60;1.00
13256;DHT22;37913;48.370;10.930;2022-07-21T06:07:44;23.60;1.00
13256;DHT22;37913;48.370;10.930;2022-07-21T06:10:11;23.70;1.00
13256;DHT22;37913;48.370;10.930;2022-07-21T06:12:38;23.90;99.90
13256;DHT22;37913;48.370;10.930;2022-07-21T06:15:06;24.00;99.90
13256;DHT22;37913;48.370;10.930;2022-07-21T06:17:38;24.20;1.00
13256;DHT22;37913;48.370;10.930;2022-07-21T06:20:07;24.30;1.00
13256;DHT22;37913;48.370;10.930;2022-07-21T06:22:34;24.40;99.90
13256;DHT22;37913;48.370;10.930;2022-07-21T06:25:03;24.60;72.30
13256;DHT22;37913;48.370;10.930;2022-07-21T06:27:30;24.70;1.00
13256;DHT22;37913;48.370;10.930;2022-07-21T06:29:57;24.70;1.00
13256;DHT22;37913;48.370;10.930;2022-07-21T06:32:24;24.80;1.00
13256;DHT22;37913;48.370;10.930;2022-07-21T06:34:52;24.90;99.90
13256;DHT22;37913;48.370;10.930;2022-07-21T06:37:18;25.00;1.00
13256;DHT22;37913;48.370;10.930;2022-07-21T06:39:47;25.00;1.00
13256;DHT22;37913;48.370;10.930;2022-07-21T06:42:15;25.10;1.00
13256;DHT22;37913;48.370;10.930;2022-07-21T06:44:42;25.20;99.90
13256;DHT22;37913;48.370;10.930;2022-07-21T06:47:09;25.20;99.90
13256;DHT22;37913;48.370;10.930;2022-07-21T06:49:36;25.20;2.10
13256;DHT22;37913;48.370;10.930;2022-07-21T06:52:03;25.30;1.00
13256;DHT22;37913;48.370;10.930;2022-07-21T06:54:30;25.30;1.00
13256;DHT22;37913;48.370;10.930;2022-07-21T06:56:57;25.40;1.00
13256;DHT22;37913;48.370;10.930;2022-07-21T06:59:25;25.40;99.90
13256;DHT22;37913;48.370;10.930;2022-07-21T07:01:53;25.40;1.00
13256;DHT22;37913;48.370;10.930;2022-07-21T07:04:20;25.50;99.90
13256;DHT22;37913;48.370;10.930;2022-07-21T07:06:47;25.50;99.90
13256;DHT22;37913;48.370;10.930;2022-07-21T07:09:17;25.50;86.80
13256;DHT22;37913;48.370;10.930;2022-07-21T07:11:44;25.50;1.00
13256;DHT22;37913;48.370;10.930;2022-07-21T07:14:12;25.60;1.00
13256;DHT22;37913;48.370;10.930;2022-07-21T07:16:41;25.60;1.00
13256;DHT22;37913;48.370;10.930;2022-07-21T07:19:08;25.60;1.00
13256;DHT22;37913;48.370;10.930;2022-07-21T07:21:35;25.60;1.00
13256;DHT22;37913;48.370;10.930;2022-07-21T07:24:02;25.60;1.00
13256;DHT22;37913;48.370;10.930;2022-07-21T07:26:30;25.60;99.90
13256;DHT22;37913;48.370;10.930;2022-07-21T07:28:58;25.50;99.90
13256;DHT22;37913;48.370;10.930;2022-07-21T07:31:25;25.30;1.00
13256;DHT22;37913;48.370;10.930;2022-07-21T07:33:54;25.10;1.00
13256;DHT22;37913;48.370;10.930;2022-07-21T07:36:22;25.00;1.00
13256;DHT22;37913;48.370;10.930;2022-07-21T07:38:49;24.80;1.00
13256;DHT22;37913;48.370;10.930;2022-07-21T07:41:17;24.70;1.00
13256;DHT22;37913;48.370;10.930;2022-07-21T07:43:44;24.60;1.00
13256;DHT22;37913;48.370;10.930;2022-07-21T07:46:11;24.60;91.50
13256;DHT22;37913;48.370;10.930;2022-07-21T07:48:38;24.50;99.90
13256;DHT22;37913;48.370;10.930;2022-07-21T07:51:08;24.50;1.00
13256;DHT22;37913;48.370;10.930;2022-07-21T07:53:35;24.40;99.90
13256;DHT22;37913;48.370;10.930;2022-07-21T07:56:02;24.30;99.90
13256;DHT22;37913;48.370;10.930;2022-07-21T07:58:29;24.30;62.30
13256;DHT22;37913;48.370;10.930;2022-07-21T08:00:56;24.30;29.40
13256;DHT22;37913;48.370;10.930;2022-07-21T08:03:24;24.30;99.90
13256;DHT22;37913;48.370;10.930;2022-07-21T08:05:51;24.20;99.90
13256;DHT22;37913;48.370;10.930;2022-07-21T08:08:20;24.20;99.90
13256;DHT22;37913;48.370;10.930;2022-07-21T08:10:48;24.20;99.90
13256;DHT22;37913;48.370;10.930;2022-07-21T08:13:16;24.20;99.90
13256;DHT22;37913;48.370;10.930;2022-07-21T08:15:45;24.10;99.90
13256;DHT22;37913;48.370;10.930;2022-07-21T08:18:13;24.20;99.90
13256;DHT22;37913;48.370;10.930;2022-07-21T08:20:40;24.10;1.00
13256;DHT22;37913;48.370;10.930;2022-07-21T08:23:07;24.10;1.00
13256;DHT22;37913;48.370;10.930;2022-07-21T08:25:35;24.10;1.00
13256;DHT22;37913;48.370;10.930;2022-07-21T08:28:03;24.10;1.00
13256;DHT22;37913;48.370;10.930;2022-07-21T08:30:30;24.10;1.00
13256;DHT22;37913;48.370;10.930;2022-07-21T08:32:58;24.10;1.00
13256;DHT22;37913;48.370;10.930;2022-07-21T08:35:25;24.10;1.00
13256;DHT22;37913;48.370;10.930;2022-07-21T08:37:57;24.10;1.00
13256;DHT22;37913;48.370;10.930;2022-07-21T08:40:25;24.10;99.90
13256;DHT22;37913;48.370;10.930;2022-07-21T08:42:54;24.10;99.90
13256;DHT22;37913;48.370;10.930;2022-07-21T08:45:21;24.20;99.90
13256;DHT22;37913;48.370;10.930;2022-07-21T08:47:51;24.30;82.70
13256;DHT22;37913;48.370;10.930;2022-07-21T08:50:18;24.40;1.00
13256;DHT22;37913;48.370;10.930;2022-07-21T08:52:45;24.40;1.00
13256;DHT22;37913;48.370;10.930;2022-07-21T08:55:12;24.50;1.00
13256;DHT22;37913;48.370;10.930;2022-07-21T08:57:39;24.60;99.90
13256;DHT22;37913;48.370;10.930;2022-07-21T09:00:09;24.70;99.90
13256;DHT22;37913;48.370;10.930;2022-07-21T09:02:37;24.70;1.00
13256;DHT22;37913;48.370;10.930;2022-07-21T09:05:06;24.80;99.90
13256;DHT22;37913;48.370;10.930;2022-07-21T09:07:47;24.90;99.90
13256;DHT22;37913;48.370;10.930;2022-07-21T09:10:15;24.90;1.00
13256;DHT22;37913;48.370;10.930;2022-07-21T09:12:52;25.00;1.00
13256;DHT22;37913;48.370;10.930;2022-07-21T09:15:23;25.00;99.90
13256;DHT22;37913;48.370;10.930;2022-07-21T09:18:08;25.10;1.00
13256;DHT22;37913;48.370;10.930;2022-07-21T09:20:35;25.10;1.00
13256;DHT22;37913;48.370;10.930;2022-07-21T09:23:04;25.10;1.00
13256;DHT22;37913;48.370;10.930;2022-07-21T09:25:39;25.20;99.90
13256;DHT22;37913;48.370;10.930;2022-07-21T09:28:12;25.20;99.90
13256;DHT22;37913;48.370;10.930;2022-07-21T09:30:57;25.20;1.00
13256;DHT22;37913;48.370;10.930;2022-07-21T09:33:27;25.30;1.00
13256;DHT22;37913;48.370;10.930;2022-07-21T09:36:03;25.30;1.00
13256;DHT22;37913;48.370;10.930;2022-07-21T09:38:32;25.30;1.00
13256;DHT22;37913;48.370;10.930;2022-07-21T09:41:08;25.40;1.00
13256;DHT22;37913;48.370;10.930;2022-07-21T09:43:37;25.40;99.90
13256;DHT22;37913;48.370;10.930;2022-07-21T09:46:12;25.40;99.90
13256;DHT22;37913;48.370;10.930;2022-07-21T09:48:41;25.50;35.00
13256;DHT22;37913;48.370;10.930;2022-07-21T09:51:36;25.50;1.00
13256;DHT22;37913;48.370;10.930;2022-07-21T09:54:07;25.50;1.00
13256;DHT22;37913;48.370;10.930;2022-07-21T09:56:36;25.50;1.00
13256;DHT22;37913;48.370;10.930;2022-07-21T09:59:04;25.50;1.00
13256;DHT22;37913;48.370;10.930;2022-07-21T10:01:33;25.60;1.00
13256;DHT22;37913;48.370;10.930;2022-07-21T10:04:01;25.60;1.00
13256;DHT22;37913;48.370;10.930;2022-07-21T10:06:30;25.60;1.00
13256;DHT22;37913;48.370;10.930;2022-07-21T10:08:58;25.60;99.90
13256;DHT22;37913;48.370;10.930;2022-07-21T10:11:26;25.60;99.90
13256;DHT22;37913;48.370;10.930;2022-07-21T10:13:54;25.60;99.90
13256;DHT22;37913;48.370;10.930;2022-07-21T10:16:21;25.70;99.90
13256;DHT22;37913;48.370;10.930;2022-07-21T10:19:13;25.70;99.90
13256;DHT22;37913;48.370;10.930;2022-07-21T10:21:43;25.70;99.90
13256;DHT22;37913;48.370;10.930;2022-07-21T10:24:14;25.70;99.90
13256;DHT22;37913;48.370;10.930;2022-07-21T10:27:00;25.80;24.30
13256;DHT22;37913;48.370;10.930;2022-07-21T10:29:52;25.80;1.00
13256;DHT22;37913;48.370;10.930;2022-07-21T10:32:21;25.80;1.00
13256;DHT22;37913;48.370;10.930;2022-07-21T10:34:50;25.80;1.00
13256;DHT22;37913;48.370;10.930;2022-07-21T10:37:42;25.80;1.00
13256;DHT22;37913;48.370;10.930;2022-07-21T10:40:36;25.90;1.00
13256;DHT22;37913;48.370;10.930;2022-07-21T10:43:38;25.90;1.00
13256;DHT22;37913;48.370;10.930;2022-07-21T10:46:37;25.90;99.90
13256;DHT22;37913;48.370;10.930;2022-07-21T10:49:06;25.90;99.90
13256;DHT22;37913;48.370;10.930;2022-07-21T10:51:37;26.00;99.90
13256;DHT22;37913;48.370;10.930;2022-07-21T10:57:24;26.00;1.00
13256;DHT22;37913;48.370;10.930;2022-07-21T11:00:23;26.00;1.00
13256;DHT22;37913;48.370;10.930;2022-07-21T11:02:54;26.00;1.00
13256;DHT22;37913;48.370;10.930;2022-07-21T11:05:22;26.00;99.90
13256;DHT22;37913;48.370;10.930;2022-07-21T11:08:17;26.10;1.00
13256;DHT22;37913;48.370;10.930;2022-07-21T11:10:48;26.10;99.90
13256;DHT22;37913;48.370;10.930;2022-07-21T11:13:15;26.10;1.00
13256;DHT22;37913;48.370;10.930;2022-07-21T11:15:56;26.00;99.90
13256;DHT22;37913;48.370;10.930;2022-07-21T11:18:26;26.10;99.90
13256;DHT22;37913;48.370;10.930;2022-07-21T11:21:02;26.10;99.90
13256;DHT22;37913;48.370;10.930;2022-07-21T11:23:43;26.10;1.00
13256;DHT22;37913;48.370;10.930;2022-07-21T11:26:12;26.10;99.90
13256;DHT22;37913;48.370;10.930;2022-07-21T11:28:39;26.10;1.00
13256;DHT22;37913;48.370;10.930;2022-07-21T11:31:13;26.00;12.70
13256;DHT22;37913;48.370;10.930;2022-07-21T11:33:41;26.00;1.00
13256;DHT22;37913;48.370;10.930;2022-07-21T11:36:09;26.00;1.00
13256;DHT22;37913;48.370;10.930;2022-07-21T11:38:56;25.90;1.00
13256;DHT22;37913;48.370;10.930;2022-07-21T11:41:23;25.90;1.00
13256;DHT22;37913;48.370;10.930;2022-07-21T11:43:50;25.80;1.00
13256;DHT22;37913;48.370;10.930;2022-07-21T11:46:17;25.80;1.00
13256;DHT22;37913;48.370;10.930;2022-07-21T11:48:44;25.80;1.00
13256;DHT22;37913;48.370;10.930;2022-07-21T11:51:11;25.80;1.00
13256;DHT22;37913;48.370;10.930;2022-07-21T11:53:44;25.80;39.80
13256;DHT22;37913;48.370;10.930;2022-07-21T11:56:15;25.80;99.90
13256;DHT22;37913;48.370;10.930;2022-07-21T11:58:43;25.90;99.90
13256;DHT22;37913;48.370;10.930;2022-07-21T12:01:10;25.90;99.90
13256;DHT22;37913;48.370;10.930;2022-07-21T12:03:47;25.90;99.90
13256;DHT22;37913;48.370;10.930;2022-07-21T12:06:15;25.90;99.90
13256;DHT22;37913;48.370;10.930;2022-07-21T12:08:45;25.90;99.90
13256;DHT22;37913;48.370;10.930;2022-07-21T12:11:12;25.90;99.90
13256;DHT22;37913;48.370;10.930;2022-07-21T12:13:52;25.90;99.90
13256;DHT22;37913;48.370;10.930;2022-07-21T12:16:19;25.90;99.90
13256;DHT22;37913;48.370;10.930;2022-07-21T12:18:47;25.90;99.90
13256;DHT22;37913;48.370;10.930;2022-07-21T12:21:14;25.90;97.10
13256;DHT22;37913;48.370;10.930;2022-07-21T12:23:41;25.90;38.40
13256;DHT22;37913;48.370;10.930;2022-07-21T12:26:20;25.90;1.00
13256;DHT22;37913;48.370;10.930;2022-07-21T12:28:49;25.90;1.00
13256;DHT22;37913;48.370;10.930;2022-07-21T12:31:19;25.80;1.00
13256;DHT22;37913;48.370;10.930;2022-07-21T12:33:47;25.80;16.40
13256;DHT22;37913;48.370;10.930;2022-07-21T12:36:14;25.80;16.60
13256;DHT22;37913;48.370;10.930;2022-07-21T12:38:43;25.80;44.00
13256;DHT22;37913;48.370;10.930;2022-07-21T12:41:13;25.90;42.40
13256;DHT22;37913;48.370;10.930;2022-07-21T12:43:41;25.90;1.00
13256;DHT22;37913;48.370;10.930;2022-07-21T12:46:10;25.90;22.60
13256;DHT22;37913;48.370;10.930;2022-07-21T12:48:38;25.90;16.40
13256;DHT22;37913;48.370;10.930;2022-07-21T12:51:08;25.90;1.00
13256;DHT22;37913;48.370;10.930;2022-07-21T12:53:39;25.90;1.00
13256;DHT22;37913;48.370;10.930;2022-07-21T12:56:06;26.00;1.00
13256;DHT22;37913;48.370;10.930;2022-07-21T12:58:35;26.00;1.00
13256;DHT22;37913;48.370;10.930;2022-07-21T13:01:03;26.00;1.00
13256;DHT22;37913;48.370;10.930;2022-07-21T13:03:31;26.10;1.00
13256;DHT22;37913;48.370;10.930;2022-07-21T13:06:01;26.00;1.00
13256;DHT22;37913;48.370;10.930;2022-07-21T13:08:29;26.10;1.00
13256;DHT22;37913;48.370;10.930;2022-07-21T13:10:56;26.10;1.00
13256;DHT22;37913;48.370;10.930;2022-07-21T13:13:23;26.00;1.00
13256;DHT22;37913;48.370;10.930;2022-07-21T13:15:52;26.00;1.00
13256;DHT22;37913;48.370;10.930;2022-07-21T13:18:20;26.20;1.00
13256;DHT22;37913;48.370;10.930;2022-07-21T13:20:48;26.10;1.00
13256;DHT22;37913;48.370;10.930;2022-07-21T13:23:15;26.10;1.00
13256;DHT22;37913;48.370;10.930;2022-07-21T13:25:43;26.10;1.00
13256;DHT22;37913;48.370;10.930;2022-07-21T13:28:10;26.10;1.00
13256;DHT22;37913;48.370;10.930;2022-07-21T13:30:37;26.10;1.00
13256;DHT22;37913;48.370;10.930;2022-07-21T13:33:06;26.10;1.00
13256;DHT22;37913;48.370;10.930;2022-07-21T13:35:34;26.10;1.00
13256;DHT22;37913;48.370;10.930;2022-07-21T13:38:01;26.10;1.00
13256;DHT22;37913;48.370;10.930;2022-07-21T13:40:28;26.10;1.00
13256;DHT22;37913;48.370;10.930;2022-07-21T13:42:56;26.20;1.00
13256;DHT22;37913;48.370;10.930;2022-07-21T13:45:23;26.20;1.00
13256;DHT22;37913;48.370;10.930;2022-07-21T13:47:53;26.80;1.00
13256;DHT22;37913;48.370;10.930;2022-07-21T13:50:22;26.60;1.00
13256;DHT22;37913;48.370;10.930;2022-07-21T13:52:49;26.20;1.00
13256;DHT22;37913;48.370;10.930;2022-07-21T13:55:16;26.20;1.00
13256;DHT22;37913;48.370;10.930;2022-07-21T13:57:43;26.20;1.00
13256;DHT22;37913;48.370;10.930;2022-07-21T14:00:11;26.30;1.00
13256;DHT22;37913;48.370;10.930;2022-07-21T14:02:39;26.20;1.00
13256;DHT22;37913;48.370;10.930;2022-07-21T14:05:07;26.20;1.00
13256;DHT22;37913;48.370;10.930;2022-07-21T14:07:36;26.20;1.00
13256;DHT22;37913;48.370;10.930;2022-07-21T14:10:05;26.10;1.00
13256;DHT22;37913;48.370;10.930;2022-07-21T14:12:33;26.20;1.00
13256;DHT22;37913;48.370;10.930;2022-07-21T14:15:00;26.20;1.00
13256;DHT22;37913;48.370;10.930;2022-07-21T14:17:27;26.20;1.00
13256;DHT22;37913;48.370;10.930;2022-07-21T14:19:54;26.20;1.00
13256;DHT22;37913;48.370;10.930;2022-07-21T14:22:24;26.20;1.00
13256;DHT22;37913;48.370;10.930;2022-07-21T14:24:52;26.20;99.90
13256;DHT22;37913;48.370;10.930;2022-07-21T14:27:36;26.10;99.90
13256;DHT22;37913;48.370;10.930;2022-07-21T14:30:04;26.10;99.90
13256;DHT22;37913;48.370;10.930;2022-07-21T14:32:32;26.10;99.90
13256;DHT22;37913;48.370;10.930;2022-07-21T14:34:59;26.10;99.90
13256;DHT22;37913;48.370;10.930;2022-07-21T14:37:26;26.20;99.90
13256;DHT22;37913;48.370;10.930;2022-07-21T14:39:55;26.20;99.90
13256;DHT22;37913;48.370;10.930;2022-07-21T14:42:22;26.20;99.90
13256;DHT22;37913;48.370;10.930;2022-07-21T14:44:49;26.20;99.90
13256;DHT22;37913;48.370;10.930;2022-07-21T14:47:16;26.30;99.90
13256;DHT22;37913;48.370;10.930;2022-07-21T14:49:43;26.30;99.90
13256;DHT22;37913;48.370;10.930;2022-07-21T14:52:10;26.30;99.90
13256;DHT22;37913;48.370;10.930;2022-07-21T14:54:37;26.30;99.90
13256;DHT22;37913;48.370;10.930;2022-07-21T14:57:06;26.30;99.90
13256;DHT22;37913;48.370;10.930;2022-07-21T14:59:33;26.30;99.90
13256;DHT22;37913;48.370;10.930;2022-07-21T15:02:00;26.30;99.90
13256;DHT22;37913;48.370;10.930;2022-07-21T15:04:27;26.30;99.90
13256;DHT22;37913;48.370;10.930;2022-07-21T15:06:54;26.30;99.90
13256;DHT22;37913;48.370;10.930;2022-07-21T15:09:21;26.40;99.90
13256;DHT22;37913;48.370;10.930;2022-07-21T15:11:48;26.30;99.90
13256;DHT22;37913;48.370;10.930;2022-07-21T15:14:18;26.30;99.90
13256;DHT22;37913;48.370;10.930;2022-07-21T15:16:48;26.40;99.90
13256;DHT22;37913;48.370;10.930;2022-07-21T15:19:15;26.40;99.90
13256;DHT22;37913;48.370;10.930;2022-07-21T15:21:42;26.40;99.90
13256;DHT22;37913;48.370;10.930;2022-07-21T15:24:10;26.40;99.90
13256;DHT22;37913;48.370;10.930;2022-07-21T15:26:37;26.40;99.90
13256;DHT22;37913;48.370;10.930;2022-07-21T15:29:06;26.40;99.90
13256;DHT22;37913;48.370;10.930;2022-07-21T15:31:36;26.40;99.90
13256;DHT22;37913;48.370;10.930;2022-07-21T15:34:03;26.50;99.90
13256;DHT22;37913;48.370;10.930;2022-07-21T15:36:30;26.50;99.90
13256;DHT22;37913;48.370;10.930;2022-07-21T15:38:58;26.50;99.90